Flight Track Log - Related Links

Times and Time Zones

All times are in EDT time to prevent confusion due to time zone crossing. See the N836EA flight status page for this flight to view local times or setup timezone preferences in your user account.

Time Position Orientation Groundspeed Altitude Reporting Facility
EDT Latitude Longitude Course Direction KTS MPH feet Rate Location/Type
Thu 12:30:05 PM 34.7786 -92.2742 322° Northwest 140 161 2,900  Level Memphis Center
Thu 12:30:19 PM 34.7828 -92.2800 311° West 141 162 3,200 2,167 Climbing Memphis Center
Thu 12:30:41 PM 34.7819 -92.3044 268° West 147 169 4,200 2,000 Climbing Memphis Center
Thu 12:31:22 PM 34.7800 -92.3261 264° West 144 166 5,300 1,922 Climbing Memphis Center
Thu 12:32:24 PM 34.7769 -92.3825 266° West 139 160 7,500 2,032 Climbing Memphis Center
Thu 12:33:26 PM 34.7606 -92.4253 245° Southwest 145 167 9,500 1,816 Climbing Memphis Center
Thu 12:35:29 PM 34.7131 -92.5125 236° Southwest 152 175 13,100 1,719 Climbing Fort Worth Center
Thu 12:36:31 PM 34.6994 -92.5631 252° West 155 178 14,800 1,668 Climbing Fort Worth Center
Thu 12:38:36 PM 34.6622 -92.6844 253° West 170 196 18,300 1,663 Climbing Memphis Center
Thu 12:40:40 PM 34.6275 -92.8025 250° West 185 213 21,700 1,548 Climbing Fort Worth Center
Thu 12:41:42 PM 34.6097 -92.8606 250° West 185 213 23,100 1,306 Climbing Fort Worth Center
Thu 12:42:44 PM 34.5914 -92.9219 250° West 185 213 24,400 1,251 Climbing Memphis Center
Thu 12:44:49 PM 34.5500 -93.0556 228° Southwest 191 220 27,000 867 Climbing Memphis Center
Thu 12:46:53 PM 34.5086 -93.1908 250° West 213 245 28,000 323 Climbing Memphis Center
Thu 12:47:55 PM 34.4836 -93.2750 250° West 248 285 28,000  Level Memphis Center
Thu 12:48:57 PM 34.4564 -93.3628 249° West 267 307 28,000  Level Memphis Center
Thu 12:51:01 PM 34.4011 -93.5478 250° West 283 326 28,000 -258 Level Fort Worth Center
Thu 12:52:03 PM 34.3667 -93.6522 248° West 283 326 27,200 -968 Descending Memphis Center
Thu 12:53:05 PM 34.3361 -93.7525 250° West 303 349 26,000 -387 Descending Memphis Center
Thu 12:55:09 PM 34.2633 -93.9406 245° Southwest 302 348 26,000  Level Memphis Center
Thu 12:57:14 PM 34.1872 -94.1131 242° Southwest 295 339 26,000  Level Memphis Center
Thu 12:58:16 PM 34.1394 -94.2147 240° Southwest 293 337 26,000  Level Memphis Center
Thu 12:59:18 PM 34.0922 -94.2931 234° Southwest 293 337 26,000  Level Memphis Center
Thu 01:00:20 PM 34.0450 -94.3733 235° Southwest 293 337 26,000  Level Memphis Center
Thu 01:01:22 PM 33.9972 -94.4553 235° Southwest 294 338 26,000  Level Memphis Center
Thu 01:02:24 PM 33.9514 -94.5356 235° Southwest 296 341 26,000  Level Fort Worth Center
Thu 01:03:26 PM 33.8756 -94.6136 221° Southwest 303 349 26,000  Level Fort Worth Center
Thu 01:04:28 PM 33.8050 -94.6711 214° Southwest 304 350 26,000  Level Fort Worth Center
Thu 01:05:30 PM 33.7383 -94.7258 214° Southwest 299 344 26,000  Level Fort Worth Center
Thu 01:07:35 PM 33.6033 -94.8392 215° Southwest 297 342 26,000  Level Fort Worth Center
Thu 01:08:37 PM 33.5219 -94.9050 214° Southwest 296 341 26,000  Level Fort Worth Center
Thu 01:09:39 PM 33.4547 -94.9614 215° Southwest 296 341 26,000  Level Fort Worth Center
Thu 01:10:41 PM 33.3856 -95.0172 214° Southwest 298 343 26,000  Level Fort Worth Center
Thu 01:11:43 PM 33.3175 -95.0731 214° Southwest 297 342 26,000  Level Fort Worth Center
Thu 01:12:45 PM 33.2511 -95.1294 215° Southwest 296 341 26,000  Level Fort Worth Center
Thu 01:15:52 PM 33.0303 -95.3081 214° Southwest 297 342 26,000  Level Fort Worth Center
Thu 01:16:54 PM 32.9811 -95.3733 228° Southwest 296 341 26,000  Level Fort Worth Center
Thu 01:17:56 PM 32.9025 -95.4447 217° Southwest 301 346 26,000  Level Fort Worth Center
Thu 01:18:58 PM 32.8333 -95.5000 214° Southwest 301 346 26,000  Level Fort Worth Center
Thu 01:20:00 PM 32.7633 -95.5542 213° Southwest 301 346 26,000  Level Fort Worth Center
Thu 01:21:38 PM 32.6458 -95.6472 214° Southwest 299 344 26,000  Level Houston Center
Thu 01:23:06 PM 32.5547 -95.7178 213° Southwest 300 345 26,000  Level Fort Worth Center
Thu 01:24:08 PM 32.4728 -95.7831 214° Southwest 298 343 26,000  Level Fort Worth Center
Thu 01:25:46 PM 32.3694 -95.8622 213° Southwest 297 342 26,000  Level Houston Center
Thu 01:26:49 PM 32.2856 -95.9278 213° Southwest 298 343 26,000  Level Houston Center
Thu 01:27:51 PM 32.2183 -95.9803 213° Southwest 297 342 26,000  Level Houston Center
Thu 01:28:53 PM 32.1486 -96.0333 213° Southwest 297 342 26,000  Level Houston Center
Thu 01:29:55 PM 32.0786 -96.0878 213° Southwest 298 343 26,000  Level Houston Center
Thu 01:30:57 PM 32.0044 -96.1447 213° Southwest 298 343 26,000  Level Houston Center
Thu 01:32:25 PM 31.9086 -96.2189 213° Southwest 298 343 26,000  Level Fort Worth Center
Thu 01:33:28 PM 31.8347 -96.2761 213° Southwest 298 343 26,000  Level Fort Worth Center
Thu 01:34:30 PM 31.7644 -96.3286 212° Southwest 298 343 26,000  Level Fort Worth Center
Thu 01:36:08 PM 31.6433 -96.4206 213° Southwest 298 343 26,000  Level Houston Center
Thu 01:37:10 PM 31.5750 -96.4736 213° Southwest 297 342 26,000 -192 Level Houston Center
Thu 01:38:13 PM 31.4992 -96.5025 198° South 292 336 25,600 -864 Descending Houston Center
Thu 01:39:15 PM 31.4172 -96.4750 164° South 304 350 24,200 -774 Descending Houston Center
Thu 01:40:17 PM 31.3383 -96.4464 163° South 297 342 24,000 -97 Descending Houston Center
Thu 01:41:19 PM 31.2508 -96.4139 162° South 280 322 24,000 -194 Level Houston Center
Thu 01:43:23 PM 31.1061 -96.3597 162° South 271 312 23,400 -1,027 Descending Houston Center
Thu 01:44:26 PM 31.0331 -96.3325 162° South 271 312 20,800 -2,796 Descending Houston Center
Thu 01:45:06 PM 30.9783 -96.3131 163° South 276 318 18,600 -2,516 Descending Houston Center
Thu 01:46:30 PM 30.8883 -96.2800 163° South 271 312 15,600 -2,567 Descending Houston Center
Thu 01:48:34 PM 30.7581 -96.1844 139° Southeast 258 297 9,700 -2,764 Descending Houston Center
Thu 01:49:41 PM 30.7025 -96.1253 138° Southeast 242 278 6,800 -1,968 Descending Houston Center
Thu 01:50:39 PM 30.6669 -96.0836 135° Southeast 212 244 5,600 -878 Descending Houston Center
Thu 01:51:44 PM 30.6253 -96.0347 135° Southeast 171 197 5,000 -238 Descending Houston Center
Thu 01:52:45 PM 30.5950 -95.9969 133° Southeast 160 184 5,100  Climbing Houston Center
Thu 01:53:46 PM 30.5644 -95.9592 133° Southeast 159 183 5,000 -49 Descending Houston Center
Thu 01:54:47 PM 30.5361 -95.9222 132° Southeast 167 192 5,000  Level Houston Center
Thu 01:55:49 PM 30.4894 -95.8686 135° Southeast 209 241 5,000  Level Houston Center
Thu 01:56:50 PM 30.4494 -95.8197 133° Southeast 211 243 5,000 -492 Level Houston Center
Thu 01:57:51 PM 30.4050 -95.7669 134° Southeast 210 242 4,000 -1,000 Descending Houston Center
Thu 01:58:56 PM 30.3664 -95.7186 133° Southeast 211 243 2,900 -945 Descending Houston Center
Thu 01:59:58 PM 30.3275 -95.6706 133° Southeast 210 242 2,000 -182 Descending Houston Center
Thu 02:03:53 PM 30.1733 -95.5692 221° Southwest 143 165 2,000  Level Houston Center
Thu 02:04:07 PM 30.1689 -95.5692 180° South 156 180 2,000 -395 Level Houston Center
Thu 02:05:09 PM 30.1350 -95.5647 174° South 139 160 1,500 -579 Descending Houston Center
Thu 02:06:01 PM 30.1053 -95.5606 173° South 108 124 900 -581 Descending Houston Center
Thu 02:06:11 PM 30.1058 -95.5589 69° East 122 140 900  Level Houston Center
Thu 02:08:00 PM 30.0618 -95.5528 221° Southwest  Level Estimated
Thu 02:08:00 PM 30.0618 -95.5528 221° Southwest  Level Estimated
Thu 02:09:00 PM 30.0618 -95.5528 221° Southwest  Level Estimated
Thu 02:15:00 PM 30.0618 -95.5528 221° Southwest  Level Estimated
Thu 02:16:00 PM 30.0618 -95.5528 221° Southwest  Level Estimated
Thu 02:17:00 PM 30.0618 -95.5528 221° Southwest  Level Estimated
Thu 02:18:00 PM 30.0618 -95.5528 221° Southwest  Level Estimated
Thu 02:19:00 PM 30.0618 -95.5528 221° Southwest  Level Estimated
Thu 02:20:00 PM 30.0618 -95.5528 221° Southwest  Level Estimated
Thu 02:21:00 PM 30.0618 -95.5528 221° Southwest  Level Estimated
Thu 02:22:00 PM 30.0618 -95.5528 221° Southwest  Level Estimated
Thu 02:23:00 PM 30.0618 -95.5528 221° Southwest  Level Estimated
Thu 02:24:00 PM 30.0618 -95.5528 221° Southwest  Level Estimated
Thu 02:25:00 PM 30.0618 -95.5528 221° Southwest  Level Estimated
Thu 02:26:00 PM 30.0618 -95.5528 221° Southwest  Level Estimated

Login

Don't have an account? Register now (free) for customized features, flight alerts, and more!